Check out our new PWSWeather beta!
PWSweather.com
Personal Weather Stations
Station Observations
KNHFREMO3
Fremont, Fremont, NH 03044

FremontFremont, NH 03044

Lat: 42.964965, Lon: -71.118193

Elevation: 171

Station Type: Davis Vantage Pro2

High Low Average
Temperature 61.0°F16.1°C 19.8°F-6.8°C 36.8°F2.7°C
Dew Point 28.4°F-2.0°C 8.1°F-13.3°C 17.4°F-8.1°C
Winds 4.0 mph 6.4 kmh Calm Calm 1.0 mph E1.6 kmh E
Wind Gusts 12.0 mph19.3 kmh -- 2.0 mph3.2 kmh
Humidity 89% 13% 55%
Pressure 30.07 in1018.3 mb 29.92 in1013.2 mb -
Precipitation 0.00 in0.0 mm - -
Hour Temp Dew Point Humidity Winds Wind Gusts Pressure Precip Precip Rate Daily Precip Total
12:00 AM 25.3°F-3.7°C 17.9°F-7.8°C 73% Calm Calm -- 30.07 in1018.3 mb 0.00 in0.0 mm 0.00 in0.0 mm 0.00 in0.0 mm
12:15 AM 25.1°F-3.8°C 17.7°F-7.9°C 73% Calm Calm -- 30.07 in1018.3 mb 0.00 in0.0 mm 0.00 in0.0 mm 0.00 in0.0 mm
12:30 AM 24.8°F-4.0°C 17.7°F-7.9°C 74% Calm Calm -- 30.07 in1018.3 mb 0.00 in0.0 mm 0.00 in0.0 mm 0.00 in0.0 mm
12:45 AM 24.4°F-4.2°C 17.3°F-8.2°C 74% Calm Calm -- 30.06 in1017.9 mb 0.00 in0.0 mm 0.00 in0.0 mm 0.00 in0.0 mm
01:00 AM 24.0°F-4.4°C 16.9°F-8.4°C 74% Calm Calm -- 30.06 in1017.9 mb 0.00 in0.0 mm 0.00 in0.0 mm 0.00 in0.0 mm
01:15 AM 23.8°F-4.6°C 17.0°F-8.3°C 75% Calm Calm -- 30.06 in1017.9 mb 0.00 in0.0 mm 0.00 in0.0 mm 0.00 in0.0 mm
01:30 AM 23.5°F-4.7°C 17.0°F-8.3°C 76% Calm Calm -- 30.06 in1017.9 mb 0.00 in0.0 mm 0.00 in0.0 mm 0.00 in0.0 mm
01:45 AM 23.3°F-4.8°C 17.2°F-8.2°C 77% Calm Calm -- 30.06 in1017.9 mb 0.00 in0.0 mm 0.00 in0.0 mm 0.00 in0.0 mm
02:00 AM 23.1°F-4.9°C 17.0°F-8.3°C 77% Calm Calm -- 30.05 in1017.6 mb 0.00 in0.0 mm 0.00 in0.0 mm 0.00 in0.0 mm
02:15 AM 22.8°F-5.1°C 16.7°F-8.5°C 77% Calm Calm -- 30.05 in1017.6 mb 0.00 in0.0 mm 0.00 in0.0 mm 0.00 in0.0 mm
02:30 AM 22.6°F-5.2°C 16.8°F-8.4°C 78% Calm Calm -- 30.05 in1017.6 mb 0.00 in0.0 mm 0.00 in0.0 mm 0.00 in0.0 mm
02:45 AM 22.5°F-5.3°C 17.0°F-8.3°C 79% Calm Calm -- 30.05 in1017.6 mb 0.00 in0.0 mm 0.00 in0.0 mm 0.00 in0.0 mm
03:00 AM 22.4°F-5.3°C 16.9°F-8.4°C 79% Calm Calm -- 30.05 in1017.6 mb 0.00 in0.0 mm 0.00 in0.0 mm 0.00 in0.0 mm
03:15 AM 22.2°F-5.4°C 16.7°F-8.5°C 79% Calm Calm -- 30.05 in1017.6 mb 0.00 in0.0 mm 0.00 in0.0 mm 0.00 in0.0 mm
03:30 AM 22.0°F-5.6°C 16.5°F-8.6°C 79% Calm Calm -- 30.04 in1017.3 mb 0.00 in0.0 mm 0.00 in0.0 mm 0.00 in0.0 mm
03:45 AM 21.7°F-5.7°C 16.2°F-8.8°C 79% Calm Calm -- 30.04 in1017.3 mb 0.00 in0.0 mm 0.00 in0.0 mm 0.00 in0.0 mm
04:00 AM 21.5°F-5.8°C 16.0°F-8.9°C 79% Calm Calm -- 30.04 in1017.3 mb 0.00 in0.0 mm 0.00 in0.0 mm 0.00 in0.0 mm
04:15 AM 21.2°F-6.0°C 15.7°F-9.1°C 79% Calm Calm -- 30.04 in1017.3 mb 0.00 in0.0 mm 0.00 in0.0 mm 0.00 in0.0 mm
04:30 AM 21.1°F-6.1°C 15.9°F-8.9°C 80% Calm Calm -- 30.04 in1017.3 mb 0.00 in0.0 mm 0.00 in0.0 mm 0.00 in0.0 mm
04:45 AM 21.1°F-6.1°C 15.9°F-8.9°C 80% Calm Calm -- 30.04 in1017.3 mb 0.00 in0.0 mm 0.00 in0.0 mm 0.00 in0.0 mm
05:00 AM 20.7°F-6.3°C 15.2°F-9.3°C 79% Calm Calm -- 30.04 in1017.3 mb 0.00 in0.0 mm 0.00 in0.0 mm 0.00 in0.0 mm
05:15 AM 20.5°F-6.4°C 15.0°F-9.4°C 79% Calm Calm -- 30.04 in1017.3 mb 0.00 in0.0 mm 0.00 in0.0 mm 0.00 in0.0 mm
05:30 AM 20.4°F-6.4°C 15.2°F-9.3°C 80% Calm Calm -- 30.04 in1017.3 mb 0.00 in0.0 mm 0.00 in0.0 mm 0.00 in0.0 mm
05:45 AM 20.3°F-6.5°C 15.1°F-9.4°C 80% Calm Calm -- 30.04 in1017.3 mb 0.00 in0.0 mm 0.00 in0.0 mm 0.00 in0.0 mm
06:00 AM 20.1°F-6.6°C 14.9°F-9.5°C 80% Calm Calm -- 30.05 in1017.6 mb 0.00 in0.0 mm 0.00 in0.0 mm 0.00 in0.0 mm
06:15 AM 20.0°F-6.7°C 14.8°F-9.6°C 80% Calm Calm -- 30.04 in1017.3 mb 0.00 in0.0 mm 0.00 in0.0 mm 0.00 in0.0 mm
06:30 AM 19.9°F-6.7°C 14.7°F-9.6°C 80% Calm Calm -- 30.04 in1017.3 mb 0.00 in0.0 mm 0.00 in0.0 mm 0.00 in0.0 mm
06:45 AM 19.8°F-6.8°C 14.6°F-9.7°C 80% Calm Calm -- 30.05 in1017.6 mb 0.00 in0.0 mm 0.00 in0.0 mm 0.00 in0.0 mm
07:00 AM 20.0°F-6.7°C 15.1°F-9.4°C 81% Calm Calm -- 30.04 in1017.3 mb 0.00 in0.0 mm 0.00 in0.0 mm 0.00 in0.0 mm
07:15 AM 20.4°F-6.4°C 16.1°F-8.8°C 83% Calm Calm -- 30.04 in1017.3 mb 0.00 in0.0 mm 0.00 in0.0 mm 0.00 in0.0 mm
07:30 AM 21.2°F-6.0°C 17.9°F-7.8°C 87% Calm Calm -- 30.05 in1017.6 mb 0.00 in0.0 mm 0.00 in0.0 mm 0.00 in0.0 mm
07:45 AM 22.3°F-5.4°C 19.3°F-7.1°C 88% Calm Calm -- 30.05 in1017.6 mb 0.00 in0.0 mm 0.00 in0.0 mm 0.00 in0.0 mm
08:00 AM 23.9°F-4.5°C 20.9°F-6.2°C 88% Calm Calm -- 30.05 in1017.6 mb 0.00 in0.0 mm 0.00 in0.0 mm 0.00 in0.0 mm
08:15 AM 26.0°F-3.3°C 23.2°F-4.9°C 89% Calm Calm -- 30.05 in1017.6 mb 0.00 in0.0 mm 0.00 in0.0 mm 0.00 in0.0 mm
08:30 AM 29.0°F-1.7°C 26.2°F-3.2°C 89% Calm Calm -- 30.06 in1017.9 mb 0.00 in0.0 mm 0.00 in0.0 mm 0.00 in0.0 mm
08:45 AM 32.2°F0.1°C 26.1°F-3.3°C 78% Calm Calm -- 30.05 in1017.6 mb 0.00 in0.0 mm 0.00 in0.0 mm 0.00 in0.0 mm
09:00 AM 35.3°F1.8°C 28.2°F-2.1°C 75% Calm Calm -- 30.05 in1017.6 mb 0.00 in0.0 mm 0.00 in0.0 mm 0.00 in0.0 mm
09:15 AM 38.8°F3.8°C 28.4°F-2.0°C 66% Calm Calm 1.0 mph1.6 kmh 30.05 in1017.6 mb 0.00 in0.0 mm 0.00 in0.0 mm 0.00 in0.0 mm
09:30 AM 41.7°F5.4°C 20.3°F-6.5°C 42% 1.0 mph SW1.6 kmh SW 3.0 mph4.8 kmh 30.04 in1017.3 mb 0.00 in0.0 mm 0.00 in0.0 mm 0.00 in0.0 mm
09:45 AM 44.5°F6.9°C 17.8°F-7.9°C 34% 1.0 mph WSW1.6 kmh WSW 3.0 mph4.8 kmh 30.04 in1017.3 mb 0.00 in0.0 mm 0.00 in0.0 mm 0.00 in0.0 mm
10:00 AM 45.9°F7.7°C 16.9°F-8.4°C 31% 2.0 mph SW3.2 kmh SW 6.0 mph9.7 kmh 30.04 in1017.3 mb 0.00 in0.0 mm 0.00 in0.0 mm 0.00 in0.0 mm
10:15 AM 47.5°F8.6°C 16.8°F-8.4°C 29% 1.0 mph WSW1.6 kmh WSW 5.0 mph8.0 kmh 30.04 in1017.3 mb 0.00 in0.0 mm 0.00 in0.0 mm 0.00 in0.0 mm
10:30 AM 49.2°F9.6°C 14.8°F-9.6°C 25% 1.0 mph WSW1.6 kmh WSW 6.0 mph9.7 kmh 30.04 in1017.3 mb 0.00 in0.0 mm 0.00 in0.0 mm 0.00 in0.0 mm
10:45 AM 50.7°F10.4°C 12.1°F-11.1°C 21% 1.0 mph WSW1.6 kmh WSW 9.0 mph14.5 kmh 30.03 in1016.9 mb 0.00 in0.0 mm 0.00 in0.0 mm 0.00 in0.0 mm
11:00 AM 52.1°F11.2°C 13.3°F-10.4°C 21% 2.0 mph WSW3.2 kmh WSW 8.0 mph12.9 kmh 30.03 in1016.9 mb 0.00 in0.0 mm 0.00 in0.0 mm 0.00 in0.0 mm
11:15 AM 53.1°F11.7°C 10.6°F-11.9°C 18% 2.0 mph WSW3.2 kmh WSW 8.0 mph12.9 kmh 30.02 in1016.6 mb 0.00 in0.0 mm 0.00 in0.0 mm 0.00 in0.0 mm
11:30 AM 53.8°F12.1°C 11.2°F-11.6°C 18% 3.0 mph SW4.8 kmh SW 7.0 mph11.3 kmh 30.02 in1016.6 mb 0.00 in0.0 mm 0.00 in0.0 mm 0.00 in0.0 mm
11:45 AM 55.2°F12.9°C 9.7°F-12.4°C 16% 1.0 mph SW1.6 kmh SW 5.0 mph8.0 kmh 30.01 in1016.3 mb 0.00 in0.0 mm 0.00 in0.0 mm 0.00 in0.0 mm
12:00 PM 56.0°F13.3°C 14.3°F-9.8°C 19% 2.0 mph SW3.2 kmh SW 7.0 mph11.3 kmh 30.00 in1015.9 mb 0.00 in0.0 mm 0.00 in0.0 mm 0.00 in0.0 mm
12:15 PM 56.4°F13.6°C 12.1°F-11.1°C 17% 3.0 mph SW4.8 kmh SW 8.0 mph12.9 kmh 30.00 in1015.9 mb 0.00 in0.0 mm 0.00 in0.0 mm 0.00 in0.0 mm
12:30 PM 56.3°F13.5°C 12.0°F-11.1°C 17% 3.0 mph SW4.8 kmh SW 11.0 mph17.7 kmh 29.99 in1015.6 mb 0.00 in0.0 mm 0.00 in0.0 mm 0.00 in0.0 mm
12:45 PM 56.7°F13.7°C 12.3°F-10.9°C 17% 3.0 mph SSW4.8 kmh SSW 10.0 mph16.1 kmh 29.99 in1015.6 mb 0.00 in0.0 mm 0.00 in0.0 mm 0.00 in0.0 mm
01:00 PM 57.5°F14.2°C 11.6°F-11.3°C 16% 3.0 mph WSW4.8 kmh WSW 12.0 mph19.3 kmh 29.98 in1015.2 mb 0.00 in0.0 mm 0.00 in0.0 mm 0.00 in0.0 mm
01:15 PM 57.7°F14.3°C 11.7°F-11.3°C 16% 3.0 mph WSW4.8 kmh WSW 10.0 mph16.1 kmh 29.98 in1015.2 mb 0.00 in0.0 mm 0.00 in0.0 mm 0.00 in0.0 mm
01:30 PM 58.5°F14.7°C 9.4°F-12.6°C 14% 2.0 mph WSW3.2 kmh WSW 7.0 mph11.3 kmh 29.97 in1014.9 mb 0.00 in0.0 mm 0.00 in0.0 mm 0.00 in0.0 mm
01:45 PM 58.9°F14.9°C 8.1°F-13.3°C 13% 3.0 mph SW4.8 kmh SW 8.0 mph12.9 kmh 29.96 in1014.6 mb 0.00 in0.0 mm 0.00 in0.0 mm 0.00 in0.0 mm
02:00 PM 59.6°F15.3°C 8.6°F-13.0°C 13% 2.0 mph SW3.2 kmh SW 7.0 mph11.3 kmh 29.96 in1014.6 mb 0.00 in0.0 mm 0.00 in0.0 mm 0.00 in0.0 mm
02:15 PM 60.5°F15.8°C 12.5°F-10.8°C 15% 2.0 mph SW3.2 kmh SW 6.0 mph9.7 kmh 29.96 in1014.6 mb 0.00 in0.0 mm 0.00 in0.0 mm 0.00 in0.0 mm
02:30 PM 60.7°F15.9°C 9.5°F-12.5°C 13% 4.0 mph SW6.4 kmh SW 11.0 mph17.7 kmh 29.95 in1014.2 mb 0.00 in0.0 mm 0.00 in0.0 mm 0.00 in0.0 mm
02:45 PM 61.0°F16.1°C 9.7°F-12.4°C 13% 3.0 mph SW4.8 kmh SW 9.0 mph14.5 kmh 29.94 in1013.9 mb 0.00 in0.0 mm 0.00 in0.0 mm 0.00 in0.0 mm
03:00 PM 60.9°F16.1°C 12.9°F-10.6°C 15% 4.0 mph WSW6.4 kmh WSW 12.0 mph19.3 kmh 29.94 in1013.9 mb 0.00 in0.0 mm 0.00 in0.0 mm 0.00 in0.0 mm
03:15 PM 60.8°F16.0°C 12.8°F-10.7°C 15% 4.0 mph WSW6.4 kmh WSW 12.0 mph19.3 kmh 29.94 in1013.9 mb 0.00 in0.0 mm 0.00 in0.0 mm 0.00 in0.0 mm
03:30 PM 60.1°F15.6°C 13.7°F-10.2°C 16% 2.0 mph W3.2 kmh W 12.0 mph19.3 kmh 29.93 in1013.5 mb 0.00 in0.0 mm 0.00 in0.0 mm 0.00 in0.0 mm
03:45 PM 60.2°F15.7°C 13.8°F-10.1°C 16% 3.0 mph WSW4.8 kmh WSW 11.0 mph17.7 kmh 29.93 in1013.5 mb 0.00 in0.0 mm 0.00 in0.0 mm 0.00 in0.0 mm
04:00 PM 60.2°F15.7°C 12.3°F-10.9°C 15% 2.0 mph SW3.2 kmh SW 8.0 mph12.9 kmh 29.93 in1013.5 mb 0.00 in0.0 mm 0.00 in0.0 mm 0.00 in0.0 mm
04:15 PM 58.9°F14.9°C 16.7°F-8.5°C 19% 2.0 mph WSW3.2 kmh WSW 7.0 mph11.3 kmh 29.93 in1013.5 mb 0.00 in0.0 mm 0.00 in0.0 mm 0.00 in0.0 mm
04:30 PM 56.3°F13.5°C 17.9°F-7.8°C 22% Calm Calm 2.0 mph3.2 kmh 29.92 in1013.2 mb 0.00 in0.0 mm 0.00 in0.0 mm 0.00 in0.0 mm
04:45 PM 53.6°F12.0°C 18.6°F-7.4°C 25% Calm Calm 1.0 mph1.6 kmh 29.92 in1013.2 mb 0.00 in0.0 mm 0.00 in0.0 mm 0.00 in0.0 mm
05:00 PM 50.8°F10.4°C 21.2°F-6.0°C 31% Calm Calm 1.0 mph1.6 kmh 29.93 in1013.5 mb 0.00 in0.0 mm 0.00 in0.0 mm 0.00 in0.0 mm
05:15 PM 47.9°F8.8°C 20.8°F-6.2°C 34% Calm Calm -- 29.93 in1013.5 mb 0.00 in0.0 mm 0.00 in0.0 mm 0.00 in0.0 mm
05:30 PM 45.5°F7.5°C 22.5°F-5.3°C 40% Calm Calm -- 29.93 in1013.5 mb 0.00 in0.0 mm 0.00 in0.0 mm 0.00 in0.0 mm
05:45 PM 43.2°F6.2°C 22.7°F-5.2°C 44% Calm Calm -- 29.93 in1013.5 mb 0.00 in0.0 mm 0.00 in0.0 mm 0.00 in0.0 mm
06:00 PM 41.2°F5.1°C 23.0°F-5.0°C 48% Calm Calm 1.0 mph1.6 kmh 29.93 in1013.5 mb 0.00 in0.0 mm 0.00 in0.0 mm 0.00 in0.0 mm
06:15 PM 39.5°F4.2°C 22.4°F-5.3°C 50% Calm Calm -- 29.93 in1013.5 mb 0.00 in0.0 mm 0.00 in0.0 mm 0.00 in0.0 mm
06:30 PM 38.2°F3.4°C 22.6°F-5.2°C 53% Calm Calm -- 29.93 in1013.5 mb 0.00 in0.0 mm 0.00 in0.0 mm 0.00 in0.0 mm
06:45 PM 36.9°F2.7°C 22.2°F-5.4°C 55% Calm Calm -- 29.93 in1013.5 mb 0.00 in0.0 mm 0.00 in0.0 mm 0.00 in0.0 mm
07:00 PM 36.1°F2.3°C 21.9°F-5.6°C 56% Calm Calm -- 29.93 in1013.5 mb 0.00 in0.0 mm 0.00 in0.0 mm 0.00 in0.0 mm
07:15 PM 35.3°F1.8°C 22.0°F-5.6°C 58% Calm Calm -- 29.93 in1013.5 mb 0.00 in0.0 mm 0.00 in0.0 mm 0.00 in0.0 mm
07:30 PM 34.4°F1.3°C 21.9°F-5.6°C 60% Calm Calm -- 29.94 in1013.9 mb 0.00 in0.0 mm 0.00 in0.0 mm 0.00 in0.0 mm
07:45 PM 33.7°F0.9°C 21.3°F-5.9°C 60% Calm Calm -- 29.95 in1014.2 mb 0.00 in0.0 mm 0.00 in0.0 mm 0.00 in0.0 mm
08:00 PM 33.2°F0.7°C 21.2°F-6.0°C 61% Calm Calm -- 29.95 in1014.2 mb 0.00 in0.0 mm 0.00 in0.0 mm 0.00 in0.0 mm
08:15 PM 32.7°F0.4°C 21.1°F-6.1°C 62% Calm Calm 1.0 mph1.6 kmh 29.96 in1014.6 mb 0.00 in0.0 mm 0.00 in0.0 mm 0.00 in0.0 mm
08:30 PM 32.4°F0.2°C 21.2°F-6.0°C 63% Calm Calm -- 29.96 in1014.6 mb 0.00 in0.0 mm 0.00 in0.0 mm 0.00 in0.0 mm
08:45 PM 32.1°F0.1°C 21.3°F-5.9°C 64% Calm Calm 2.0 mph3.2 kmh 29.96 in1014.6 mb 0.00 in0.0 mm 0.00 in0.0 mm 0.00 in0.0 mm
09:00 PM 31.9°F-0.1°C 21.5°F-5.8°C 65% Calm Calm 1.0 mph1.6 kmh 29.96 in1014.6 mb 0.00 in0.0 mm 0.00 in0.0 mm 0.00 in0.0 mm
09:15 PM 31.6°F-0.2°C 21.5°F-5.8°C 66% Calm Calm 1.0 mph1.6 kmh 29.96 in1014.6 mb 0.00 in0.0 mm 0.00 in0.0 mm 0.00 in0.0 mm
09:30 PM 31.3°F-0.4°C 21.3°F-5.9°C 66% Calm Calm -- 29.95 in1014.2 mb 0.00 in0.0 mm 0.00 in0.0 mm 0.00 in0.0 mm
09:45 PM 30.9°F-0.6°C 21.2°F-6.0°C 67% Calm Calm -- 29.95 in1014.2 mb 0.00 in0.0 mm 0.00 in0.0 mm 0.00 in0.0 mm
10:00 PM 30.6°F-0.8°C 20.9°F-6.2°C 67% Calm Calm 1.0 mph1.6 kmh 29.96 in1014.6 mb 0.00 in0.0 mm 0.00 in0.0 mm 0.00 in0.0 mm
10:15 PM 30.4°F-0.9°C 21.1°F-6.1°C 68% Calm Calm -- 29.96 in1014.6 mb 0.00 in0.0 mm 0.00 in0.0 mm 0.00 in0.0 mm
10:30 PM 30.0°F-1.1°C 21.1°F-6.1°C 69% Calm Calm -- 29.96 in1014.6 mb 0.00 in0.0 mm 0.00 in0.0 mm 0.00 in0.0 mm
10:45 PM 29.7°F-1.3°C 20.8°F-6.2°C 69% Calm Calm -- 29.95 in1014.2 mb 0.00 in0.0 mm 0.00 in0.0 mm 0.00 in0.0 mm
11:00 PM 29.6°F-1.3°C 21.0°F-6.1°C 70% Calm Calm -- 29.95 in1014.2 mb 0.00 in0.0 mm 0.00 in0.0 mm 0.00 in0.0 mm
11:15 PM 29.6°F-1.3°C 21.3°F-5.9°C 71% Calm Calm -- 29.95 in1014.2 mb 0.00 in0.0 mm 0.00 in0.0 mm 0.00 in0.0 mm
11:30 PM 29.7°F-1.3°C 21.4°F-5.9°C 71% Calm Calm -- 29.95 in1014.2 mb 0.00 in0.0 mm 0.00 in0.0 mm 0.00 in0.0 mm
11:45 PM 29.7°F-1.3°C 21.4°F-5.9°C 71% Calm Calm -- 29.95 in1014.2 mb 0.00 in0.0 mm 0.00 in0.0 mm 0.00 in0.0 mm